KGIC

Details ICAO KGIC
Name Idaho County Airport
Region United States
Timezone America/Los_Angeles (UTC-7.0)
Plans Departing 2
Arriving 11
Stats Elevation 3,310 ft / 1,009 m (AMSL)
Location 45.942558° -116.123417°
Runways 1
Magnetic Variation 13.750° E
Sunrise 2018-05-24 12:04:40 UTC / 2018-05-24 05:04:40 Local
Sunset 2018-05-25 03:20:55 UTC / 2018-05-24 20:20:55 Local
Advertisement - Login to hide

Runways

ID Width Length Bearing (true) Bearing (mag) Surface Threshold Offset Overrun Length
07 75 ft / 23 m 5,087 ft / 1,550 m 90.61° 76.86° Asphalt 102 ft / 31 m 0 ft / 0 m
25 75 ft / 23 m 5,087 ft / 1,550 m 270.62° 256.87° Asphalt 0 ft / 0 m 0 ft / 0 m

Map

Weather


0- 5 10 15 20 25 30 35+ Temperature / ° C

Clouds and Precipitation
Forecast for 2018-05-25 06:00 UTC. Updated 10 minutes ago

Ground ~20,000 ft ~40,000 ft Winds

METAR

KGIC 250535Z AUTO 11004KT 10SM CLR 12/12 A3002 RMK AO1

TAF

Not found

Frequencies

Unicom 122.90 MHz CTAF
Approach 123.95 MHz SEATTLE CNTR
Warning: Do not use this data for real-world aviation or navigation. No guarantee of current accuracy is given.